Aérodrome :
LOGIN :

S'inscrire | Disclaimer

   EN    FR    IT 

 










Légende :    VFR   VFR Marginal   IFR   IFR Intensif   IFR Très Intensif
Visi : 
Plafond : 
>= 8 km
>= 3000ft
5 à 8 km
1000 à 3000 ft
1500m à 5 km
500 à 1000 ft
800 à 1500m
200 à 500 ft
< 800m
< 200 ft
Symboles :   Orages  Brouillard  Fortes neiges  Fortes précipitations  Vent > 20 kt
SIGMETs :   Divers  Orages  Givrage  Turbulence  Onde Orograph.  Cendres Volcan.







- Altitude de l'aérodrome : 13 ft
- Code IATA : OST


EBOS - Oostend bruges Int.

DERNIER METAR :
  • 231550Z 02007KT 9999 FEW032 16/11 Q1022 NOSIG

METARs EXPIRÉS :
  • 231520Z 01008KT 9999 FEW032 16/11 Q1022 NOSIG
  • 231450Z 01010KT 9999 FEW032 16/11 Q1023 NOSIG
  • 231420Z 36009KT 9999 FEW032 16/11 Q1023 NOSIG
  • 231350Z 36008KT 9999 FEW032 16/11 Q1023 NOSIG
  • 231320Z 01007KT 9999 FEW032 17/11 Q1024 NOSIG

TAF TAF EBOS
Valide du 23 à 12h jusqu'au 24 à 18h UTC


231110Z 2312/2418 10006KT 9999 FEW025
PROB30
TEMPO 2403/2406 4000 BR
Pas de NOTAMs connus pour ce terrain.



MET'MAP, la Météo Aéronautique d'un coup d'oeil ! - Copyright ORBIFLY Décembre 2007 - Disclaimer

ORBIFLY MET'MAP TEAM :

Programmation & Développement : Alexandra Zaïnal
Conception & Développement : Baudouin d'Aumeries
Co-Programmation & Développement : Marc-Olivier Méhu
Soutien technique & logistique : Manuel Goepfert

Contact : metmap@orbifly.com




SOURCES & CREDITS :

   NOAA